createdAt,value
2023-04-02T00:00:14.000Z,99.99
2023-04-02T00:01:18.000Z,99.99
2023-04-02T00:02:22.000Z,99.99
2023-04-02T00:03:26.000Z,99.99
2023-04-02T00:04:30.000Z,99.99
2023-04-02T00:05:34.000Z,99.99
2023-04-02T00:06:38.000Z,99.99
2023-04-02T00:07:43.000Z,99.99
2023-04-02T00:08:47.000Z,99.99
2023-04-02T00:09:51.000Z,99.99
2023-04-02T00:10:55.000Z,99.99
2023-04-02T00:11:59.000Z,99.99
2023-04-02T00:13:03.000Z,99.99
2023-04-02T00:14:07.000Z,99.99
2023-04-02T00:15:11.000Z,99.99
2023-04-02T00:16:16.000Z,99.99
2023-04-02T00:17:20.000Z,99.99
2023-04-02T00:18:24.000Z,99.99
2023-04-02T00:19:28.000Z,99.99
2023-04-02T00:20:32.000Z,99.99
2023-04-02T00:21:36.000Z,99.99
2023-04-02T00:22:40.000Z,99.99
2023-04-02T00:23:45.000Z,99.99
2023-04-02T00:24:49.000Z,99.99
2023-04-02T00:25:53.000Z,99.99
2023-04-02T00:26:57.000Z,99.99
2023-04-02T00:28:01.000Z,99.99
2023-04-02T00:29:05.000Z,99.99
2023-04-02T00:30:09.000Z,99.99
2023-04-02T00:31:13.000Z,99.99
2023-04-02T00:32:17.000Z,99.99
2023-04-02T00:33:22.000Z,99.99
2023-04-02T00:34:26.000Z,99.99
2023-04-02T00:35:30.000Z,99.99
2023-04-02T00:36:34.000Z,99.99
2023-04-02T00:37:38.000Z,99.99
2023-04-02T00:38:42.000Z,99.99
2023-04-02T00:39:46.000Z,99.99
2023-04-02T00:40:51.000Z,99.99
2023-04-02T00:41:55.000Z,99.99
2023-04-02T00:42:59.000Z,99.99
2023-04-02T00:44:03.000Z,99.99
2023-04-02T00:45:07.000Z,99.99
2023-04-02T00:46:11.000Z,99.99
2023-04-02T00:47:15.000Z,99.99
2023-04-02T00:48:20.000Z,99.99
2023-04-02T00:49:24.000Z,99.99
2023-04-02T00:50:28.000Z,99.99
2023-04-02T00:51:32.000Z,99.99
2023-04-02T00:52:36.000Z,99.99
2023-04-02T00:53:40.000Z,99.99
2023-04-02T00:54:44.000Z,99.99
2023-04-02T00:55:48.000Z,99.99
2023-04-02T00:56:52.000Z,99.99
2023-04-02T00:57:56.000Z,99.99
2023-04-02T00:59:00.000Z,99.99
2023-04-02T01:00:04.000Z,99.99
2023-04-02T01:01:09.000Z,99.99
2023-04-02T01:02:13.000Z,99.99
2023-04-02T01:03:17.000Z,99.99
2023-04-02T01:04:21.000Z,99.99
2023-04-02T01:05:25.000Z,99.99
2023-04-02T01:06:30.000Z,99.99
2023-04-02T01:07:34.000Z,99.99
2023-04-02T01:08:38.000Z,99.99
2023-04-02T01:09:42.000Z,99.99
2023-04-02T01:10:46.000Z,99.99
2023-04-02T01:11:50.000Z,99.99
2023-04-02T01:12:54.000Z,99.99
2023-04-02T01:13:58.000Z,99.99
2023-04-02T01:15:02.000Z,99.99
2023-04-02T01:16:07.000Z,99.99
2023-04-02T01:17:11.000Z,99.99
2023-04-02T01:18:15.000Z,99.99
2023-04-02T01:19:19.000Z,99.99
2023-04-02T01:20:23.000Z,99.99
2023-04-02T01:21:27.000Z,99.99
2023-04-02T01:22:32.000Z,99.99
2023-04-02T01:23:36.000Z,99.99
2023-04-02T01:24:45.000Z,99.99
2023-04-02T01:25:49.000Z,99.99
2023-04-02T01:26:53.000Z,99.99
2023-04-02T01:27:57.000Z,99.99
2023-04-02T01:29:01.000Z,99.99
2023-04-02T01:30:05.000Z,99.99
2023-04-02T01:31:09.000Z,99.99
2023-04-02T01:32:13.000Z,99.99
2023-04-02T01:33:17.000Z,99.99
2023-04-02T01:34:21.000Z,99.99
2023-04-02T01:35:25.000Z,99.99
2023-04-02T01:36:30.000Z,99.99
2023-04-02T01:37:34.000Z,99.99
2023-04-02T01:38:39.000Z,99.99
2023-04-02T01:39:43.000Z,99.99
2023-04-02T01:40:47.000Z,99.99
2023-04-02T01:41:51.000Z,99.99
2023-04-02T01:43:00.000Z,99.99
2023-04-02T01:44:05.000Z,99.99
2023-04-02T01:45:09.000Z,99.99
2023-04-02T01:46:13.000Z,99.99
2023-04-02T01:47:18.000Z,99.99
2023-04-02T01:48:22.000Z,99.99
2023-04-02T01:49:27.000Z,99.99
2023-04-02T01:50:31.000Z,99.99
2023-04-02T01:51:35.000Z,99.99
2023-04-02T01:52:39.000Z,99.99
2023-04-02T01:53:43.000Z,99.99
2023-04-02T01:54:47.000Z,99.99
2023-04-02T01:55:52.000Z,99.99
2023-04-02T01:56:56.000Z,99.99
2023-04-02T01:58:00.000Z,99.99
2023-04-02T01:59:04.000Z,99.99
2023-04-02T02:00:08.000Z,99.99
2023-04-02T02:01:12.000Z,99.99
2023-04-02T02:02:16.000Z,99.99
2023-04-02T02:03:21.000Z,99.99
2023-04-02T02:04:25.000Z,99.99
2023-04-02T02:05:29.000Z,99.99
2023-04-02T02:06:33.000Z,99.99
2023-04-02T02:07:37.000Z,99.99
2023-04-02T02:08:41.000Z,99.99
2023-04-02T02:09:45.000Z,99.99
2023-04-02T02:10:50.000Z,99.99
2023-04-02T02:11:54.000Z,99.99
2023-04-02T02:12:58.000Z,99.99
2023-04-02T02:14:02.000Z,99.99
2023-04-02T02:15:06.000Z,99.99
2023-04-02T02:16:10.000Z,99.99
2023-04-02T02:17:14.000Z,99.99
2023-04-02T02:18:18.000Z,99.99
2023-04-02T02:19:22.000Z,99.99
2023-04-02T02:20:27.000Z,99.99
2023-04-02T02:21:31.000Z,99.99
2023-04-02T02:22:35.000Z,99.99
2023-04-02T02:23:39.000Z,99.99
2023-04-02T02:24:43.000Z,99.99
2023-04-02T02:25:48.000Z,99.99
2023-04-02T02:26:52.000Z,99.99
2023-04-02T02:27:56.000Z,99.99
2023-04-02T02:29:00.000Z,99.99
2023-04-02T02:30:04.000Z,99.99
2023-04-02T02:31:13.000Z,99.99
2023-04-02T02:32:17.000Z,99.99
2023-04-02T02:33:22.000Z,99.99
2023-04-02T02:34:27.000Z,99.99
2023-04-02T02:35:32.000Z,99.99
2023-04-02T02:36:36.000Z,99.99
2023-04-02T02:37:45.000Z,99.99
2023-04-02T02:38:49.000Z,99.99
2023-04-02T02:39:53.000Z,99.99
2023-04-02T02:40:58.000Z,99.99
2023-04-02T02:42:02.000Z,99.99
2023-04-02T02:43:06.000Z,99.99
2023-04-02T02:44:10.000Z,99.99
2023-04-02T02:45:14.000Z,99.99
2023-04-02T02:46:18.000Z,99.99
2023-04-02T02:47:22.000Z,99.99
2023-04-02T02:48:31.000Z,99.99
2023-04-02T02:49:35.000Z,99.99
2023-04-02T02:50:39.000Z,99.99
2023-04-02T02:51:43.000Z,99.99
2023-04-02T02:52:47.000Z,99.99
2023-04-02T02:53:51.000Z,99.99
2023-04-02T02:54:55.000Z,99.99
2023-04-02T02:56:00.000Z,99.99
2023-04-02T02:57:03.000Z,99.99
2023-04-02T02:58:07.000Z,99.99
2023-04-02T02:59:12.000Z,99.99
2023-04-02T03:00:16.000Z,99.99
2023-04-02T03:01:20.000Z,99.99
2023-04-02T03:02:24.000Z,99.99
2023-04-02T03:03:28.000Z,99.99
2023-04-02T03:04:32.000Z,99.99
2023-04-02T03:05:35.000Z,99.99
2023-04-02T03:06:39.000Z,99.99
2023-04-02T03:07:43.000Z,99.99
2023-04-02T03:08:47.000Z,99.99
2023-04-02T03:09:51.000Z,99.99
2023-04-02T03:10:56.000Z,99.99
2023-04-02T03:12:00.000Z,99.99
2023-04-02T03:13:04.000Z,99.99
2023-04-02T03:14:08.000Z,99.99
2023-04-02T03:15:12.000Z,99.99
2023-04-02T03:16:16.000Z,99.99
2023-04-02T03:17:20.000Z,99.99
2023-04-02T03:18:24.000Z,99.99
2023-04-02T03:19:28.000Z,99.99
2023-04-02T03:20:32.000Z,99.99
2023-04-02T03:21:36.000Z,99.99
2023-04-02T03:22:40.000Z,99.99
2023-04-02T03:23:44.000Z,99.99
2023-04-02T03:24:48.000Z,99.99
2023-04-02T03:25:52.000Z,99.99
2023-04-02T03:26:57.000Z,99.99
2023-04-02T03:28:01.000Z,99.99
2023-04-02T03:29:05.000Z,99.99
2023-04-02T03:30:09.000Z,99.99
2023-04-02T03:31:13.000Z,99.99
2023-04-02T03:32:17.000Z,99.99
2023-04-02T03:33:21.000Z,99.99
2023-04-02T03:34:25.000Z,99.99
2023-04-02T03:35:29.000Z,99.99
2023-04-02T03:36:33.000Z,99.99
2023-04-02T03:37:37.000Z,99.99
2023-04-02T03:38:41.000Z,99.99
2023-04-02T03:39:45.000Z,99.99
2023-04-02T03:40:49.000Z,99.99
2023-04-02T03:41:53.000Z,99.99
2023-04-02T03:42:57.000Z,99.99
2023-04-02T03:44:01.000Z,99.99
2023-04-02T03:45:05.000Z,99.99
2023-04-02T03:46:14.000Z,99.99
2023-04-02T03:47:18.000Z,99.99
2023-04-02T03:48:22.000Z,99.99
2023-04-02T03:49:27.000Z,99.99
2023-04-02T03:50:31.000Z,99.99
2023-04-02T03:51:35.000Z,99.99
2023-04-02T03:52:39.000Z,99.99
2023-04-02T03:53:43.000Z,99.99
2023-04-02T03:54:47.000Z,99.99
2023-04-02T03:55:51.000Z,99.99
2023-04-02T03:56:55.000Z,99.99
2023-04-02T03:57:59.000Z,99.99
2023-04-02T03:59:03.000Z,99.99
2023-04-02T04:00:07.000Z,99.99
2023-04-02T04:01:11.000Z,99.99
2023-04-02T04:02:15.000Z,99.99
2023-04-02T04:03:19.000Z,99.99
2023-04-02T04:04:23.000Z,99.99
2023-04-02T04:05:27.000Z,99.99
2023-04-02T04:06:31.000Z,99.99
2023-04-02T04:07:35.000Z,99.99
2023-04-02T04:08:40.000Z,99.99
2023-04-02T04:09:44.000Z,99.99
2023-04-02T04:10:48.000Z,99.99
2023-04-02T04:11:57.000Z,99.99
2023-04-02T04:13:01.000Z,99.99
2023-04-02T04:14:05.000Z,99.99
2023-04-02T04:15:10.000Z,99.99
2023-04-02T04:16:14.000Z,99.99
2023-04-02T04:17:18.000Z,99.99
2023-04-02T04:18:22.000Z,99.99
2023-04-02T04:19:26.000Z,99.99
2023-04-02T04:20:30.000Z,99.99
2023-04-02T04:21:34.000Z,99.99
2023-04-02T04:22:38.000Z,99.99
2023-04-02T04:23:42.000Z,99.99
2023-04-02T04:24:46.000Z,99.99
2023-04-02T04:25:50.000Z,99.99
2023-04-02T04:26:54.000Z,99.99
2023-04-02T04:27:58.000Z,99.99
2023-04-02T04:29:02.000Z,99.99
2023-04-02T04:30:06.000Z,99.99
2023-04-02T04:31:10.000Z,99.99
2023-04-02T04:32:14.000Z,99.99
2023-04-02T04:33:18.000Z,99.99
2023-04-02T04:34:22.000Z,99.99
2023-04-02T04:35:26.000Z,99.99
2023-04-02T04:36:31.000Z,99.99
2023-04-02T04:37:35.000Z,99.99
2023-04-02T04:38:39.000Z,99.99
2023-04-02T04:39:43.000Z,99.99
2023-04-02T04:40:47.000Z,99.99
2023-04-02T04:41:51.000Z,99.99
2023-04-02T04:42:55.000Z,99.99
2023-04-02T04:43:59.000Z,99.99
2023-04-02T04:45:03.000Z,99.99
2023-04-02T04:46:07.000Z,99.99
2023-04-02T04:47:11.000Z,99.99
2023-04-02T04:48:15.000Z,99.99
2023-04-02T04:49:19.000Z,99.99
2023-04-02T04:50:23.000Z,99.99
2023-04-02T04:51:32.000Z,99.99
2023-04-02T04:52:36.000Z,99.99
2023-04-02T04:53:40.000Z,99.99
2023-04-02T04:54:44.000Z,99.99
2023-04-02T04:55:48.000Z,99.99
2023-04-02T04:56:52.000Z,99.99
2023-04-02T04:57:56.000Z,99.99
2023-04-02T04:59:00.000Z,99.99
2023-04-02T05:00:04.000Z,99.99
2023-04-02T05:01:08.000Z,99.99
2023-04-02T05:02:12.000Z,99.99
2023-04-02T05:03:16.000Z,99.99
2023-04-02T05:04:20.000Z,99.99
2023-04-02T05:05:24.000Z,99.99
2023-04-02T05:06:28.000Z,99.99
2023-04-02T05:07:32.000Z,99.99
2023-04-02T05:08:36.000Z,99.99
2023-04-02T05:09:40.000Z,99.99
2023-04-02T05:10:44.000Z,99.99
2023-04-02T05:11:48.000Z,99.99
2023-04-02T05:12:57.000Z,99.99
2023-04-02T05:14:01.000Z,99.99
2023-04-02T05:15:05.000Z,99.99
2023-04-02T05:16:09.000Z,99.99
2023-04-02T05:17:13.000Z,99.99
2023-04-02T05:18:17.000Z,99.99
2023-04-02T05:19:21.000Z,99.99
2023-04-02T05:20:25.000Z,99.99
2023-04-02T05:21:29.000Z,99.99
2023-04-02T05:22:33.000Z,99.99
2023-04-02T05:23:37.000Z,99.99
2023-04-02T05:24:41.000Z,99.99
2023-04-02T05:25:45.000Z,99.99
2023-04-02T05:26:49.000Z,99.99
2023-04-02T05:27:53.000Z,99.99
2023-04-02T05:28:57.000Z,99.99
2023-04-02T05:30:01.000Z,99.99
2023-04-02T05:31:05.000Z,99.99
2023-04-02T05:32:09.000Z,99.99
2023-04-02T05:33:13.000Z,99.99
2023-04-02T05:34:22.000Z,99.99
2023-04-02T05:35:26.000Z,99.99
2023-04-02T05:36:30.000Z,99.99
2023-04-02T05:37:34.000Z,99.99
2023-04-02T05:38:38.000Z,99.99
2023-04-02T05:39:42.000Z,99.99
2023-04-02T05:40:46.000Z,99.99
2023-04-02T05:41:50.000Z,99.99
2023-04-02T05:42:54.000Z,99.99
2023-04-02T05:43:58.000Z,99.99
2023-04-02T05:45:02.000Z,99.99
2023-04-02T05:46:06.000Z,99.99
2023-04-02T05:47:10.000Z,99.99
2023-04-02T05:48:14.000Z,99.99
2023-04-02T05:49:18.000Z,99.99
2023-04-02T05:50:22.000Z,99.99
2023-04-02T05:51:26.000Z,99.99
2023-04-02T05:52:30.000Z,99.99
2023-04-02T05:53:34.000Z,99.99
2023-04-02T05:54:38.000Z,99.99
2023-04-02T05:55:42.000Z,99.99
2023-04-02T05:56:46.000Z,99.99
2023-04-02T05:57:50.000Z,99.99
2023-04-02T05:58:54.000Z,99.99
2023-04-02T05:59:58.000Z,99.99
2023-04-02T06:01:07.000Z,99.99
2023-04-02T06:02:11.000Z,99.99
2023-04-02T06:03:15.000Z,99.99
2023-04-02T06:04:19.000Z,99.99
2023-04-02T06:05:23.000Z,99.99
2023-04-02T06:06:27.000Z,99.99
2023-04-02T06:07:31.000Z,99.99
2023-04-02T06:08:36.000Z,99.99
2023-04-02T06:09:40.000Z,99.99
2023-04-02T06:10:44.000Z,99.99
2023-04-02T06:11:48.000Z,99.99
2023-04-02T06:12:52.000Z,99.99
2023-04-02T06:13:56.000Z,99.99
2023-04-02T06:15:00.000Z,99.99
2023-04-02T06:16:04.000Z,99.99
2023-04-02T06:17:08.000Z,99.99
2023-04-02T06:18:12.000Z,99.99
2023-04-02T06:19:16.000Z,99.99
2023-04-02T06:20:20.000Z,99.99
2023-04-02T06:21:24.000Z,99.99
2023-04-02T06:22:28.000Z,99.99
2023-04-02T06:23:33.000Z,99.99
2023-04-02T06:24:37.000Z,99.99
2023-04-02T06:25:41.000Z,99.99
2023-04-02T06:26:45.000Z,99.99
2023-04-02T06:27:49.000Z,99.99
2023-04-02T06:28:53.000Z,99.99
2023-04-02T06:29:57.000Z,99.99
2023-04-02T06:31:01.000Z,99.99
2023-04-02T06:32:05.000Z,99.99
2023-04-02T06:33:09.000Z,99.99
2023-04-02T06:34:13.000Z,99.99
2023-04-02T06:35:17.000Z,99.99
2023-04-02T06:36:22.000Z,99.99
2023-04-02T06:37:26.000Z,99.99
2023-04-02T06:38:30.000Z,99.99
2023-04-02T06:39:33.000Z,99.99
2023-04-02T06:40:38.000Z,99.99
2023-04-02T06:41:42.000Z,99.99
2023-04-02T06:42:46.000Z,99.99
2023-04-02T06:43:50.000Z,99.99
2023-04-02T06:44:54.000Z,99.99
2023-04-02T06:45:58.000Z,99.99
2023-04-02T06:47:02.000Z,99.99
2023-04-02T06:48:06.000Z,99.99
2023-04-02T06:49:10.000Z,99.99
2023-04-02T06:50:14.000Z,99.99
2023-04-02T06:51:18.000Z,99.99
2023-04-02T06:52:22.000Z,99.99
2023-04-02T06:53:26.000Z,99.99
2023-04-02T06:54:30.000Z,99.99
2023-04-02T06:55:34.000Z,99.99
2023-04-02T06:56:38.000Z,99.99
2023-04-02T06:57:42.000Z,99.99
2023-04-02T06:58:46.000Z,99.99
2023-04-02T06:59:50.000Z,99.99
2023-04-02T07:00:54.000Z,99.99
2023-04-02T07:01:58.000Z,99.99
2023-04-02T07:03:02.000Z,99.99
2023-04-02T07:04:06.000Z,99.99
2023-04-02T07:05:10.000Z,99.99
2023-04-02T07:06:14.000Z,99.99
2023-04-02T07:07:18.000Z,99.99
2023-04-02T07:08:22.000Z,98.96
2023-04-02T07:09:26.000Z,99.27
2023-04-02T07:10:30.000Z,99.16
2023-04-02T07:11:34.000Z,99.37
2023-04-02T07:12:38.000Z,99.99
2023-04-02T07:13:42.000Z,99.79
2023-04-02T07:14:46.000Z,99.99
2023-04-02T07:15:50.000Z,99.64
2023-04-02T07:16:54.000Z,99.43
2023-04-02T07:17:58.000Z,99.43
2023-04-02T07:19:02.000Z,98.81
2023-04-02T07:20:06.000Z,98.81
2023-04-02T07:21:10.000Z,98.5
2023-04-02T07:22:14.000Z,98.08
2023-04-02T07:23:18.000Z,97.45
2023-04-02T07:24:22.000Z,97.25
2023-04-02T07:25:26.000Z,97.77
2023-04-02T07:26:30.000Z,97.88
2023-04-02T07:27:33.000Z,98.39
2023-04-02T07:28:37.000Z,97.93
2023-04-02T07:29:41.000Z,98.03
2023-04-02T07:30:45.000Z,98.76
2023-04-02T07:31:49.000Z,97.2
2023-04-02T07:32:53.000Z,97.2
2023-04-02T07:33:57.000Z,96.79
2023-04-02T07:35:01.000Z,97.0
2023-04-02T07:36:05.000Z,96.79
2023-04-02T07:37:09.000Z,96.27
2023-04-02T07:38:13.000Z,95.75
2023-04-02T07:39:17.000Z,95.96
2023-04-02T07:40:21.000Z,95.92
2023-04-02T07:41:25.000Z,94.67
2023-04-02T07:42:29.000Z,94.4
2023-04-02T07:43:33.000Z,93.26
2023-04-02T07:44:37.000Z,94.98
2023-04-02T07:45:41.000Z,94.57
2023-04-02T07:46:45.000Z,93.95
2023-04-02T07:47:49.000Z,94.3
2023-04-02T07:48:53.000Z,94.61
2023-04-02T07:49:57.000Z,93.37
2023-04-02T07:51:01.000Z,94.4
2023-04-02T07:52:05.000Z,95.13
2023-04-02T07:53:09.000Z,95.03
2023-04-02T07:54:13.000Z,94.3
2023-04-02T07:55:17.000Z,93.88
2023-04-02T07:56:21.000Z,93.37
2023-04-02T07:57:25.000Z,92.53
2023-04-02T07:58:29.000Z,92.88
2023-04-02T07:59:33.000Z,92.36
2023-04-02T08:00:37.000Z,92.26
2023-04-02T08:01:41.000Z,92.88
2023-04-02T08:02:46.000Z,92.88
2023-04-02T08:03:50.000Z,93.41
2023-04-02T08:04:53.000Z,93.93
2023-04-02T08:05:57.000Z,92.99
2023-04-02T08:07:01.000Z,92.88
2023-04-02T08:08:06.000Z,93.82
2023-04-02T08:09:10.000Z,93.93
2023-04-02T08:10:15.000Z,92.05
2023-04-02T08:11:19.000Z,92.68
2023-04-02T08:12:22.000Z,93.1
2023-04-02T08:13:26.000Z,93.41
2023-04-02T08:14:30.000Z,93.72
2023-04-02T08:15:34.000Z,93.72
2023-04-02T08:16:38.000Z,92.99
2023-04-02T08:17:42.000Z,93.2
2023-04-02T08:18:46.000Z,92.88
2023-04-02T08:19:50.000Z,93.3
2023-04-02T08:20:54.000Z,93.3
2023-04-02T08:21:58.000Z,93.88
2023-04-02T08:23:02.000Z,93.3
2023-04-02T08:24:06.000Z,93.68
2023-04-02T08:25:10.000Z,92.43
2023-04-02T08:26:14.000Z,93.26
2023-04-02T08:27:18.000Z,91.49
2023-04-02T08:28:22.000Z,91.91
2023-04-02T08:29:26.000Z,92.8
2023-04-02T08:30:30.000Z,91.08
2023-04-02T08:31:34.000Z,91.14
2023-04-02T08:32:38.000Z,91.97
2023-04-02T08:33:42.000Z,90.89
2023-04-02T08:34:46.000Z,88.61
2023-04-02T08:35:50.000Z,89.34
2023-04-02T08:36:54.000Z,90.06
2023-04-02T08:37:58.000Z,89.29
2023-04-02T08:39:02.000Z,89.54
2023-04-02T08:40:06.000Z,89.86
2023-04-02T08:41:11.000Z,89.34
2023-04-02T08:42:15.000Z,88.2
2023-04-02T08:43:19.000Z,88.71
2023-04-02T08:44:23.000Z,88.13
2023-04-02T08:45:27.000Z,89.54
2023-04-02T08:46:31.000Z,89.13
2023-04-02T08:47:35.000Z,89.44
2023-04-02T08:48:39.000Z,89.75
2023-04-02T08:49:43.000Z,88.02
2023-04-02T08:50:47.000Z,88.85
2023-04-02T08:51:50.000Z,88.75
2023-04-02T08:52:54.000Z,89.06
2023-04-02T08:53:58.000Z,87.82
2023-04-02T08:55:02.000Z,88.75
2023-04-02T08:56:06.000Z,88.85
2023-04-02T08:57:10.000Z,89.27
2023-04-02T08:58:14.000Z,88.96
2023-04-02T08:59:18.000Z,88.96
2023-04-02T09:00:22.000Z,89.69
2023-04-02T09:01:26.000Z,89.69
2023-04-02T09:02:30.000Z,89.17
2023-04-02T09:03:34.000Z,89.27
2023-04-02T09:04:38.000Z,89.89
2023-04-02T09:05:42.000Z,88.75
2023-04-02T09:06:46.000Z,90.1
2023-04-02T09:07:50.000Z,89.37
2023-04-02T09:08:54.000Z,89.69
2023-04-02T09:09:58.000Z,90.62
2023-04-02T09:11:02.000Z,90.0
2023-04-02T09:12:06.000Z,89.69
2023-04-02T09:13:10.000Z,88.38
2023-04-02T09:14:14.000Z,88.48
2023-04-02T09:15:18.000Z,89.52
2023-04-02T09:16:22.000Z,90.2
2023-04-02T09:17:25.000Z,89.69
2023-04-02T09:18:29.000Z,89.52
2023-04-02T09:19:33.000Z,90.2
2023-04-02T09:20:37.000Z,89.58
2023-04-02T09:21:41.000Z,90.1
2023-04-02T09:22:45.000Z,89.69
2023-04-02T09:23:49.000Z,89.79
2023-04-02T09:24:58.000Z,89.79
2023-04-02T09:26:02.000Z,90.41
2023-04-02T09:27:06.000Z,89.48
2023-04-02T09:28:10.000Z,88.44
2023-04-02T09:29:14.000Z,89.27
2023-04-02T09:30:18.000Z,88.75
2023-04-02T09:31:22.000Z,88.38
2023-04-02T09:32:26.000Z,89.48
2023-04-02T09:33:30.000Z,88.85
2023-04-02T09:34:34.000Z,89.17
2023-04-02T09:35:38.000Z,90.1
2023-04-02T09:36:42.000Z,91.24
2023-04-02T09:37:46.000Z,91.2
2023-04-02T09:38:50.000Z,90.27
2023-04-02T09:39:54.000Z,89.13
2023-04-02T09:40:57.000Z,89.06
2023-04-02T09:42:01.000Z,89.17
2023-04-02T09:43:05.000Z,89.89
2023-04-02T09:44:10.000Z,90.1
2023-04-02T09:45:14.000Z,90.93
2023-04-02T09:46:18.000Z,89.27
2023-04-02T09:47:22.000Z,89.89
2023-04-02T09:48:26.000Z,90.41
2023-04-02T09:49:29.000Z,90.72
2023-04-02T09:50:33.000Z,90.41
2023-04-02T09:51:37.000Z,90.72
2023-04-02T09:52:41.000Z,90.1
2023-04-02T09:53:45.000Z,89.69
2023-04-02T09:54:49.000Z,89.69
2023-04-02T09:55:53.000Z,90.93
2023-04-02T09:56:57.000Z,90.52
2023-04-02T09:58:01.000Z,89.48
2023-04-02T09:59:05.000Z,89.58
2023-04-02T10:00:09.000Z,90.2
2023-04-02T10:01:13.000Z,90.41
2023-04-02T10:02:17.000Z,90.37
2023-04-02T10:03:21.000Z,89.54
2023-04-02T10:04:25.000Z,89.69
2023-04-02T10:05:29.000Z,89.58
2023-04-02T10:06:33.000Z,90.41
2023-04-02T10:07:37.000Z,89.58
2023-04-02T10:08:41.000Z,90.1
2023-04-02T10:09:45.000Z,90.0
2023-04-02T10:10:49.000Z,90.0
2023-04-02T10:11:53.000Z,90.41
2023-04-02T10:12:57.000Z,89.69
2023-04-02T10:14:01.000Z,90.31
2023-04-02T10:15:05.000Z,90.0
2023-04-02T10:16:09.000Z,89.06
2023-04-02T10:17:13.000Z,90.1
2023-04-02T10:18:17.000Z,90.2
2023-04-02T10:19:21.000Z,89.75
2023-04-02T10:20:25.000Z,89.06
2023-04-02T10:21:29.000Z,89.65
2023-04-02T10:22:33.000Z,90.27
2023-04-02T10:23:36.000Z,89.75
2023-04-02T10:24:40.000Z,89.44
2023-04-02T10:25:44.000Z,89.65
2023-04-02T10:26:48.000Z,89.13
2023-04-02T10:27:52.000Z,89.23
2023-04-02T10:28:56.000Z,88.61
2023-04-02T10:30:00.000Z,89.34
2023-04-02T10:31:04.000Z,89.54
2023-04-02T10:32:08.000Z,89.03
2023-04-02T10:33:12.000Z,89.61
2023-04-02T10:34:16.000Z,89.5
2023-04-02T10:35:20.000Z,88.88
2023-04-02T10:36:24.000Z,89.81
2023-04-02T10:37:28.000Z,90.75
2023-04-02T10:38:32.000Z,89.4
2023-04-02T10:39:36.000Z,88.71
2023-04-02T10:40:40.000Z,88.92
2023-04-02T10:41:44.000Z,90.27
2023-04-02T10:42:48.000Z,89.44
2023-04-02T10:43:52.000Z,88.82
2023-04-02T10:44:56.000Z,89.13
2023-04-02T10:46:00.000Z,89.65
2023-04-02T10:47:04.000Z,89.23
2023-04-02T10:48:08.000Z,89.34
2023-04-02T10:49:12.000Z,89.09
2023-04-02T10:50:16.000Z,88.46
2023-04-02T10:51:20.000Z,88.57
2023-04-02T10:52:24.000Z,88.88
2023-04-02T10:53:28.000Z,89.09
2023-04-02T10:54:32.000Z,88.67
2023-04-02T10:55:36.000Z,88.46
2023-04-02T10:56:40.000Z,88.15
2023-04-02T10:57:44.000Z,88.78
2023-04-02T10:58:48.000Z,88.57
2023-04-02T10:59:52.000Z,88.78
2023-04-02T11:00:56.000Z,87.84
2023-04-02T11:02:00.000Z,87.74
2023-04-02T11:03:04.000Z,87.12
2023-04-02T11:04:08.000Z,88.11
2023-04-02T11:05:12.000Z,86.97
2023-04-02T11:06:16.000Z,87.38
2023-04-02T11:07:20.000Z,86.76
2023-04-02T11:08:24.000Z,86.66
2023-04-02T11:09:27.000Z,85.42
2023-04-02T11:10:31.000Z,87.45
2023-04-02T11:11:35.000Z,86.72
2023-04-02T11:12:39.000Z,87.04
2023-04-02T11:13:43.000Z,87.24
2023-04-02T11:14:47.000Z,86.52
2023-04-02T11:15:51.000Z,85.89
2023-04-02T11:16:55.000Z,85.73
2023-04-02T11:17:59.000Z,86.83
2023-04-02T11:19:03.000Z,86.76
2023-04-02T11:20:07.000Z,87.59
2023-04-02T11:21:12.000Z,87.45
2023-04-02T11:22:16.000Z,86.55
2023-04-02T11:23:20.000Z,87.49
2023-04-02T11:24:24.000Z,87.38
2023-04-02T11:25:28.000Z,86.15
2023-04-02T11:26:32.000Z,88.94
2023-04-02T11:27:36.000Z,86.35
2023-04-02T11:28:40.000Z,86.66
2023-04-02T11:29:44.000Z,87.07
2023-04-02T11:30:48.000Z,85.63
2023-04-02T11:31:52.000Z,87.04
2023-04-02T11:32:56.000Z,87.04
2023-04-02T11:34:00.000Z,87.04
2023-04-02T11:35:04.000Z,87.51
2023-04-02T11:36:07.000Z,85.65
2023-04-02T11:37:11.000Z,84.72
2023-04-02T11:38:16.000Z,84.72
2023-04-02T11:39:20.000Z,84.72
2023-04-02T11:40:24.000Z,83.47
2023-04-02T11:41:27.000Z,84.2
2023-04-02T11:42:31.000Z,83.78
2023-04-02T11:43:36.000Z,84.2
2023-04-02T11:44:40.000Z,83.85
2023-04-02T11:45:43.000Z,83.12
2023-04-02T11:46:48.000Z,83.64
2023-04-02T11:47:51.000Z,83.29
2023-04-02T11:48:55.000Z,83.71
2023-04-02T11:49:59.000Z,81.99
2023-04-02T11:51:03.000Z,82.81
2023-04-02T11:52:07.000Z,82.81
2023-04-02T11:53:11.000Z,84.74
2023-04-02T11:54:15.000Z,84.64
2023-04-02T11:55:19.000Z,83.5
2023-04-02T11:56:23.000Z,82.36
2023-04-02T11:57:27.000Z,82.57
2023-04-02T11:58:31.000Z,82.71
2023-04-02T11:59:35.000Z,82.6
2023-04-02T12:00:39.000Z,82.71
2023-04-02T12:01:43.000Z,82.71
2023-04-02T12:02:47.000Z,81.84
2023-04-02T12:03:51.000Z,81.33
2023-04-02T12:04:55.000Z,82.84
2023-04-02T12:05:59.000Z,83.53
2023-04-02T12:07:03.000Z,80.63
2023-04-02T12:08:07.000Z,79.84
2023-04-02T12:09:11.000Z,82.12
2023-04-02T12:10:15.000Z,81.91
2023-04-02T12:11:19.000Z,82.7
2023-04-02T12:12:23.000Z,81.29
2023-04-02T12:13:27.000Z,82.01
2023-04-02T12:14:31.000Z,81.15
2023-04-02T12:15:35.000Z,80.84
2023-04-02T12:16:39.000Z,81.98
2023-04-02T12:17:43.000Z,79.49
2023-04-02T12:18:47.000Z,80.15
2023-04-02T12:19:51.000Z,80.88
2023-04-02T12:20:55.000Z,81.49
2023-04-02T12:21:59.000Z,82.32
2023-04-02T12:23:03.000Z,83.77
2023-04-02T12:24:07.000Z,80.71
2023-04-02T12:25:11.000Z,82.15
2023-04-02T12:26:15.000Z,80.85
2023-04-02T12:27:19.000Z,81.78
2023-04-02T12:28:23.000Z,82.57
2023-04-02T12:29:27.000Z,83.09
2023-04-02T12:30:31.000Z,83.05
2023-04-02T12:31:35.000Z,81.09
2023-04-02T12:32:39.000Z,81.81
2023-04-02T12:33:43.000Z,82.53
2023-04-02T12:34:47.000Z,82.8
2023-04-02T12:35:51.000Z,83.49
2023-04-02T12:36:55.000Z,81.21
2023-04-02T12:37:59.000Z,80.74
2023-04-02T12:39:03.000Z,82.29
2023-04-02T12:40:07.000Z,80.39
2023-04-02T12:41:11.000Z,80.25
2023-04-02T12:42:15.000Z,78.94
2023-04-02T12:43:19.000Z,80.39
2023-04-02T12:44:23.000Z,82.21
2023-04-02T12:45:28.000Z,79.05
2023-04-02T12:46:32.000Z,80.15
2023-04-02T12:47:36.000Z,80.08
2023-04-02T12:48:40.000Z,79.94
2023-04-02T12:49:44.000Z,78.94
2023-04-02T12:50:48.000Z,79.56
2023-04-02T12:51:52.000Z,79.77
2023-04-02T12:52:56.000Z,79.87
2023-04-02T12:54:00.000Z,79.7
2023-04-02T12:55:04.000Z,80.22
2023-04-02T12:56:08.000Z,81.35
2023-04-02T12:57:17.000Z,80.32
2023-04-02T12:58:21.000Z,79.7
2023-04-02T12:59:25.000Z,80.57
2023-04-02T13:00:29.000Z,79.33
2023-04-02T13:01:33.000Z,78.91
2023-04-02T13:02:37.000Z,80.77
2023-04-02T13:03:41.000Z,79.74
2023-04-02T13:04:46.000Z,80.15
2023-04-02T13:05:50.000Z,79.02
2023-04-02T13:06:54.000Z,79.94
2023-04-02T13:07:58.000Z,80.84
2023-04-02T13:09:02.000Z,81.98
2023-04-02T13:10:06.000Z,79.29
2023-04-02T13:11:10.000Z,80.22
2023-04-02T13:12:14.000Z,80.63
2023-04-02T13:13:18.000Z,80.7
2023-04-02T13:14:22.000Z,79.6
2023-04-02T13:15:26.000Z,78.56
2023-04-02T13:16:30.000Z,79.7
2023-04-02T13:17:34.000Z,80.29
2023-04-02T13:18:37.000Z,78.53
2023-04-02T13:19:41.000Z,79.05
2023-04-02T13:20:45.000Z,79.56
2023-04-02T13:21:49.000Z,78.84
2023-04-02T13:22:53.000Z,79.56
2023-04-02T13:23:57.000Z,79.46
2023-04-02T13:25:01.000Z,79.36
2023-04-02T13:26:05.000Z,79.73
2023-04-02T13:27:09.000Z,80.87
2023-04-02T13:28:13.000Z,79.52
2023-04-02T13:29:17.000Z,80.35
2023-04-02T13:30:21.000Z,79.46
2023-04-02T13:31:25.000Z,76.87
2023-04-02T13:32:29.000Z,76.26
2023-04-02T13:33:33.000Z,79.11
2023-04-02T13:34:38.000Z,77.67
2023-04-02T13:35:42.000Z,76.98
2023-04-02T13:36:46.000Z,78.18
2023-04-02T13:37:50.000Z,77.67
2023-04-02T13:38:53.000Z,77.46
2023-04-02T13:39:57.000Z,75.39
2023-04-02T13:41:01.000Z,76.01
2023-04-02T13:42:05.000Z,77.77
2023-04-02T13:43:09.000Z,77.56
2023-04-02T13:44:13.000Z,75.7
2023-04-02T13:45:17.000Z,74.26
2023-04-02T13:46:21.000Z,74.67
2023-04-02T13:47:25.000Z,74.57